sensor_id;sensor_type;location;lat;lon;timestamp;temperature;humidity
9640;DHT22;51745;50.872;4.732;2022-09-30T00:01:13;7.10;99.90
9640;DHT22;51745;50.872;4.732;2022-09-30T00:04:01;7.00;99.90
9640;DHT22;51745;50.872;4.732;2022-09-30T00:06:52;7.10;99.90
9640;DHT22;51745;50.872;4.732;2022-09-30T00:09:41;7.00;99.90
9640;DHT22;51745;50.872;4.732;2022-09-30T00:12:31;7.00;99.90
9640;DHT22;51745;50.872;4.732;2022-09-30T00:15:19;6.90;99.90
9640;DHT22;51745;50.872;4.732;2022-09-30T00:18:08;6.70;99.90
9640;DHT22;51745;50.872;4.732;2022-09-30T00:20:55;6.60;99.90
9640;DHT22;51745;50.872;4.732;2022-09-30T00:23:43;6.60;99.90
9640;DHT22;51745;50.872;4.732;2022-09-30T00:26:32;5.50;99.90
9640;DHT22;51745;50.872;4.732;2022-09-30T00:29:22;6.60;99.90
9640;DHT22;51745;50.872;4.732;2022-09-30T00:32:10;6.50;99.90
9640;DHT22;51745;50.872;4.732;2022-09-30T00:34:58;6.90;99.90
9640;DHT22;51745;50.872;4.732;2022-09-30T00:37:46;6.70;99.90
9640;DHT22;51745;50.872;4.732;2022-09-30T00:40:36;6.80;99.90
9640;DHT22;51745;50.872;4.732;2022-09-30T00:43:37;6.80;99.90
9640;DHT22;51745;50.872;4.732;2022-09-30T00:46:31;6.80;99.90
9640;DHT22;51745;50.872;4.732;2022-09-30T00:49:20;6.80;99.90
9640;DHT22;51745;50.872;4.732;2022-09-30T00:52:11;6.70;99.90
9640;DHT22;51745;50.872;4.732;2022-09-30T00:54:59;6.70;99.90
9640;DHT22;51745;50.872;4.732;2022-09-30T00:57:50;6.70;99.90
9640;DHT22;51745;50.872;4.732;2022-09-30T01:00:38;6.70;99.90
9640;DHT22;51745;50.872;4.732;2022-09-30T01:03:29;6.70;99.90
9640;DHT22;51745;50.872;4.732;2022-09-30T01:06:18;6.70;99.90
9640;DHT22;51745;50.872;4.732;2022-09-30T01:09:06;6.70;99.90
9640;DHT22;51745;50.872;4.732;2022-09-30T01:11:54;6.70;99.90
9640;DHT22;51745;50.872;4.732;2022-09-30T01:14:41;6.40;99.90
9640;DHT22;51745;50.872;4.732;2022-09-30T01:17:41;6.70;99.90
9640;DHT22;51745;50.872;4.732;2022-09-30T01:20:39;6.70;99.90
9640;DHT22;51745;50.872;4.732;2022-09-30T01:26:36;6.40;99.90
9640;DHT22;51745;50.872;4.732;2022-09-30T01:29:38;6.70;99.90
9640;DHT22;51745;50.872;4.732;2022-09-30T01:32:37;6.70;99.90
9640;DHT22;51745;50.872;4.732;2022-09-30T01:35:33;6.70;99.90
9640;DHT22;51745;50.872;4.732;2022-09-30T01:38:25;6.60;99.90
9640;DHT22;51745;50.872;4.732;2022-09-30T01:41:18;6.70;99.90
9640;DHT22;51745;50.872;4.732;2022-09-30T01:44:10;6.70;99.90
9640;DHT22;51745;50.872;4.732;2022-09-30T01:47:03;6.60;99.90
9640;DHT22;51745;50.872;4.732;2022-09-30T01:49:57;6.40;99.90
9640;DHT22;51745;50.872;4.732;2022-09-30T01:52:47;6.30;99.90
9640;DHT22;51745;50.872;4.732;2022-09-30T01:55:41;6.10;99.90
9640;DHT22;51745;50.872;4.732;2022-09-30T01:58:46;6.00;99.90
9640;DHT22;51745;50.872;4.732;2022-09-30T02:01:38;6.10;99.90
9640;DHT22;51745;50.872;4.732;2022-09-30T02:04:32;6.10;99.90
9640;DHT22;51745;50.872;4.732;2022-09-30T02:07:24;6.00;99.90
9640;DHT22;51745;50.872;4.732;2022-09-30T02:10:15;6.10;99.90
9640;DHT22;51745;50.872;4.732;2022-09-30T02:13:08;6.10;99.90
9640;DHT22;51745;50.872;4.732;2022-09-30T02:16:00;6.30;99.90
9640;DHT22;51745;50.872;4.732;2022-09-30T02:18:59;6.20;99.90
9640;DHT22;51745;50.872;4.732;2022-09-30T02:21:50;6.10;99.90
9640;DHT22;51745;50.872;4.732;2022-09-30T02:24:41;6.10;99.90
9640;DHT22;51745;50.872;4.732;2022-09-30T02:27:32;6.20;99.90
9640;DHT22;51745;50.872;4.732;2022-09-30T02:30:21;6.20;99.90
9640;DHT22;51745;50.872;4.732;2022-09-30T02:33:10;6.10;99.90
9640;DHT22;51745;50.872;4.732;2022-09-30T02:35:59;6.10;99.90
9640;DHT22;51745;50.872;4.732;2022-09-30T02:38:55;6.00;99.90
9640;DHT22;51745;50.872;4.732;2022-09-30T02:41:46;6.00;99.90
9640;DHT22;51745;50.872;4.732;2022-09-30T02:44:35;6.10;99.90
9640;DHT22;51745;50.872;4.732;2022-09-30T02:47:24;6.20;99.90
9640;DHT22;51745;50.872;4.732;2022-09-30T02:50:14;6.20;99.90
9640;DHT22;51745;50.872;4.732;2022-09-30T02:53:10;6.20;99.90
9640;DHT22;51745;50.872;4.732;2022-09-30T02:59:05;6.80;99.90
9640;DHT22;51745;50.872;4.732;2022-09-30T03:01:53;6.30;99.90
9640;DHT22;51745;50.872;4.732;2022-09-30T03:04:41;6.10;99.90
9640;DHT22;51745;50.872;4.732;2022-09-30T03:07:29;6.10;99.90
9640;DHT22;51745;50.872;4.732;2022-09-30T03:10:17;6.20;99.90
9640;DHT22;51745;50.872;4.732;2022-09-30T03:13:08;6.10;99.90
9640;DHT22;51745;50.872;4.732;2022-09-30T03:16:07;6.20;99.90
9640;DHT22;51745;50.872;4.732;2022-09-30T03:19:05;6.10;99.90
9640;DHT22;51745;50.872;4.732;2022-09-30T03:22:02;6.20;99.90
9640;DHT22;51745;50.872;4.732;2022-09-30T03:24:56;6.20;99.90
9640;DHT22;51745;50.872;4.732;2022-09-30T03:27:49;6.20;99.90
9640;DHT22;51745;50.872;4.732;2022-09-30T03:30:40;6.20;99.90
9640;DHT22;51745;50.872;4.732;2022-09-30T03:33:35;6.20;99.90
9640;DHT22;51745;50.872;4.732;2022-09-30T03:36:26;6.30;99.90
9640;DHT22;51745;50.872;4.732;2022-09-30T03:39:15;6.30;99.90
9640;DHT22;51745;50.872;4.732;2022-09-30T03:42:09;6.30;99.90
9640;DHT22;51745;50.872;4.732;2022-09-30T03:45:08;6.30;99.90
9640;DHT22;51745;50.872;4.732;2022-09-30T03:48:00;6.30;99.90
9640;DHT22;51745;50.872;4.732;2022-09-30T03:50:51;6.30;99.90
9640;DHT22;51745;50.872;4.732;2022-09-30T03:53:40;6.20;99.90
9640;DHT22;51745;50.872;4.732;2022-09-30T03:56:29;6.20;99.90
9640;DHT22;51745;50.872;4.732;2022-09-30T03:59:21;6.20;99.90
9640;DHT22;51745;50.872;4.732;2022-09-30T04:02:10;6.30;99.90
9640;DHT22;51745;50.872;4.732;2022-09-30T04:05:01;6.20;99.90
9640;DHT22;51745;50.872;4.732;2022-09-30T04:07:51;5.60;99.90
9640;DHT22;51745;50.872;4.732;2022-09-30T04:10:39;6.10;99.90
9640;DHT22;51745;50.872;4.732;2022-09-30T04:13:27;6.10;99.90
9640;DHT22;51745;50.872;4.732;2022-09-30T04:16:15;6.10;99.90
9640;DHT22;51745;50.872;4.732;2022-09-30T04:19:02;6.10;99.90
9640;DHT22;51745;50.872;4.732;2022-09-30T04:21:50;6.10;99.90
9640;DHT22;51745;50.872;4.732;2022-09-30T04:24:39;6.10;99.90
9640;DHT22;51745;50.872;4.732;2022-09-30T04:27:27;6.10;99.90
9640;DHT22;51745;50.872;4.732;2022-09-30T04:30:15;6.10;99.90
9640;DHT22;51745;50.872;4.732;2022-09-30T04:33:09;5.30;99.90
9640;DHT22;51745;50.872;4.732;2022-09-30T04:36:00;6.10;99.90
9640;DHT22;51745;50.872;4.732;2022-09-30T04:38:51;6.00;99.90
9640;DHT22;51745;50.872;4.732;2022-09-30T04:41:47;5.90;99.90
9640;DHT22;51745;50.872;4.732;2022-09-30T04:44:39;5.60;99.90
9640;DHT22;51745;50.872;4.732;2022-09-30T04:47:27;6.00;99.90
9640;DHT22;51745;50.872;4.732;2022-09-30T04:50:16;6.80;99.90
9640;DHT22;51745;50.872;4.732;2022-09-30T04:53:05;6.30;99.90
9640;DHT22;51745;50.872;4.732;2022-09-30T04:55:56;6.10;99.90
9640;DHT22;51745;50.872;4.732;2022-09-30T04:58:46;6.50;99.90
9640;DHT22;51745;50.872;4.732;2022-09-30T05:01:34;6.10;99.90
9640;DHT22;51745;50.872;4.732;2022-09-30T05:04:22;6.10;99.90
9640;DHT22;51745;50.872;4.732;2022-09-30T05:07:10;6.10;99.90
9640;DHT22;51745;50.872;4.732;2022-09-30T05:10:03;6.80;99.90
9640;DHT22;51745;50.872;4.732;2022-09-30T05:13:06;8.40;99.90
9640;DHT22;51745;50.872;4.732;2022-09-30T05:15:58;6.20;99.90
9640;DHT22;51745;50.872;4.732;2022-09-30T05:18:47;6.10;99.90
9640;DHT22;51745;50.872;4.732;2022-09-30T05:21:35;6.20;99.90
9640;DHT22;51745;50.872;4.732;2022-09-30T05:24:34;6.70;99.90
9640;DHT22;51745;50.872;4.732;2022-09-30T05:27:30;6.20;99.90
9640;DHT22;51745;50.872;4.732;2022-09-30T05:30:27;6.30;99.90
9640;DHT22;51745;50.872;4.732;2022-09-30T05:36:37;6.30;99.90
9640;DHT22;51745;50.872;4.732;2022-09-30T05:39:33;6.10;99.90
9640;DHT22;51745;50.872;4.732;2022-09-30T05:42:26;6.10;99.90
9640;DHT22;51745;50.872;4.732;2022-09-30T05:45:19;6.10;99.90
9640;DHT22;51745;50.872;4.732;2022-09-30T05:48:10;6.30;99.90
9640;DHT22;51745;50.872;4.732;2022-09-30T05:51:02;6.10;99.90
9640;DHT22;51745;50.872;4.732;2022-09-30T05:54:10;6.40;99.90
9640;DHT22;51745;50.872;4.732;2022-09-30T05:56:58;6.20;99.90
9640;DHT22;51745;50.872;4.732;2022-09-30T05:59:46;6.10;99.90
9640;DHT22;51745;50.872;4.732;2022-09-30T06:02:34;6.60;99.90
9640;DHT22;51745;50.872;4.732;2022-09-30T06:05:24;6.20;99.90
9640;DHT22;51745;50.872;4.732;2022-09-30T06:08:15;7.10;99.90
9640;DHT22;51745;50.872;4.732;2022-09-30T06:11:17;6.20;99.90
9640;DHT22;51745;50.872;4.732;2022-09-30T06:14:05;6.30;99.90
9640;DHT22;51745;50.872;4.732;2022-09-30T06:17:00;6.20;99.90
9640;DHT22;51745;50.872;4.732;2022-09-30T06:19:56;6.20;99.90
9640;DHT22;51745;50.872;4.732;2022-09-30T06:22:44;6.20;99.90
9640;DHT22;51745;50.872;4.732;2022-09-30T06:25:32;5.00;99.90
9640;DHT22;51745;50.872;4.732;2022-09-30T06:28:22;6.30;99.90
9640;DHT22;51745;50.872;4.732;2022-09-30T06:31:11;6.40;99.90
9640;DHT22;51745;50.872;4.732;2022-09-30T06:33:59;6.10;99.90
9640;DHT22;51745;50.872;4.732;2022-09-30T06:36:53;6.20;99.90
9640;DHT22;51745;50.872;4.732;2022-09-30T06:39:42;6.30;99.90
9640;DHT22;51745;50.872;4.732;2022-09-30T06:42:30;5.40;99.90
9640;DHT22;51745;50.872;4.732;2022-09-30T06:45:20;6.20;99.90
9640;DHT22;51745;50.872;4.732;2022-09-30T06:48:20;6.00;99.90
9640;DHT22;51745;50.872;4.732;2022-09-30T06:51:20;6.30;99.90
9640;DHT22;51745;50.872;4.732;2022-09-30T06:54:13;6.20;99.90
9640;DHT22;51745;50.872;4.732;2022-09-30T06:57:01;6.20;99.90
9640;DHT22;51745;50.872;4.732;2022-09-30T06:59:50;6.40;99.90
9640;DHT22;51745;50.872;4.732;2022-09-30T07:02:40;6.60;99.90
9640;DHT22;51745;50.872;4.732;2022-09-30T07:05:28;6.80;99.90
9640;DHT22;51745;50.872;4.732;2022-09-30T07:08:20;6.60;99.90
9640;DHT22;51745;50.872;4.732;2022-09-30T07:11:09;6.70;99.90
9640;DHT22;51745;50.872;4.732;2022-09-30T07:14:00;6.60;99.90
9640;DHT22;51745;50.872;4.732;2022-09-30T07:16:51;6.80;99.90
9640;DHT22;51745;50.872;4.732;2022-09-30T07:19:40;7.00;99.90
9640;DHT22;51745;50.872;4.732;2022-09-30T07:22:27;7.20;99.90
9640;DHT22;51745;50.872;4.732;2022-09-30T07:25:17;7.00;99.90
9640;DHT22;51745;50.872;4.732;2022-09-30T07:28:04;9.30;99.90
9640;DHT22;51745;50.872;4.732;2022-09-30T07:30:53;7.20;99.90
9640;DHT22;51745;50.872;4.732;2022-09-30T07:34:01;7.20;99.90
9640;DHT22;51745;50.872;4.732;2022-09-30T07:36:57;8.30;99.90
9640;DHT22;51745;50.872;4.732;2022-09-30T07:39:45;7.30;99.90
9640;DHT22;51745;50.872;4.732;2022-09-30T07:42:35;7.50;99.90
9640;DHT22;51745;50.872;4.732;2022-09-30T07:45:23;7.40;99.90
9640;DHT22;51745;50.872;4.732;2022-09-30T07:48:11;7.60;99.90
9640;DHT22;51745;50.872;4.732;2022-09-30T07:51:20;7.60;99.90
9640;DHT22;51745;50.872;4.732;2022-09-30T07:54:10;7.70;99.90
9640;DHT22;51745;50.872;4.732;2022-09-30T07:56:59;7.80;99.90
9640;DHT22;51745;50.872;4.732;2022-09-30T07:59:55;7.80;99.90
9640;DHT22;51745;50.872;4.732;2022-09-30T08:02:47;8.00;99.90
9640;DHT22;51745;50.872;4.732;2022-09-30T08:05:37;8.20;99.90
9640;DHT22;51745;50.872;4.732;2022-09-30T08:08:26;9.30;99.90
9640;DHT22;51745;50.872;4.732;2022-09-30T08:11:15;10.10;99.90
9640;DHT22;51745;50.872;4.732;2022-09-30T08:14:03;8.50;99.90
9640;DHT22;51745;50.872;4.732;2022-09-30T08:16:52;8.50;99.90
9640;DHT22;51745;50.872;4.732;2022-09-30T08:19:40;8.80;99.90
9640;DHT22;51745;50.872;4.732;2022-09-30T08:22:29;8.60;99.90
9640;DHT22;51745;50.872;4.732;2022-09-30T08:25:17;8.70;99.90
9640;DHT22;51745;50.872;4.732;2022-09-30T08:28:06;8.80;99.90
9640;DHT22;51745;50.872;4.732;2022-09-30T08:30:54;8.80;99.90
9640;DHT22;51745;50.872;4.732;2022-09-30T08:33:44;9.10;99.90
9640;DHT22;51745;50.872;4.732;2022-09-30T08:36:33;8.90;99.90
9640;DHT22;51745;50.872;4.732;2022-09-30T08:39:21;9.00;99.90
9640;DHT22;51745;50.872;4.732;2022-09-30T08:42:21;8.90;99.90
9640;DHT22;51745;50.872;4.732;2022-09-30T08:45:28;9.10;99.90
9640;DHT22;51745;50.872;4.732;2022-09-30T08:48:25;9.20;99.90
9640;DHT22;51745;50.872;4.732;2022-09-30T08:51:21;9.40;99.90
9640;DHT22;51745;50.872;4.732;2022-09-30T08:54:14;9.40;99.90
9640;DHT22;51745;50.872;4.732;2022-09-30T08:57:04;9.50;99.90
9640;DHT22;51745;50.872;4.732;2022-09-30T08:59:54;9.50;99.90
9640;DHT22;51745;50.872;4.732;2022-09-30T09:02:45;9.70;99.90
9640;DHT22;51745;50.872;4.732;2022-09-30T09:05:40;9.80;99.90
9640;DHT22;51745;50.872;4.732;2022-09-30T09:08:43;9.90;99.90
9640;DHT22;51745;50.872;4.732;2022-09-30T09:11:39;10.10;99.90
9640;DHT22;51745;50.872;4.732;2022-09-30T09:14:33;10.20;99.90
9640;DHT22;51745;50.872;4.732;2022-09-30T09:17:27;10.30;99.90
9640;DHT22;51745;50.872;4.732;2022-09-30T09:20:21;10.50;99.90
9640;DHT22;51745;50.872;4.732;2022-09-30T09:23:10;10.50;99.90
9640;DHT22;51745;50.872;4.732;2022-09-30T09:25:58;10.60;99.90
9640;DHT22;51745;50.872;4.732;2022-09-30T09:28:51;10.70;99.90
9640;DHT22;51745;50.872;4.732;2022-09-30T09:31:42;10.80;99.90
9640;DHT22;51745;50.872;4.732;2022-09-30T09:34:30;11.10;99.90
9640;DHT22;51745;50.872;4.732;2022-09-30T09:37:27;11.00;99.90
9640;DHT22;51745;50.872;4.732;2022-09-30T09:40:33;11.20;99.90
9640;DHT22;51745;50.872;4.732;2022-09-30T09:43:27;11.30;99.90
9640;DHT22;51745;50.872;4.732;2022-09-30T09:46:19;11.30;99.90
9640;DHT22;51745;50.872;4.732;2022-09-30T09:49:26;11.40;99.90
9640;DHT22;51745;50.872;4.732;2022-09-30T09:52:46;11.50;99.90
9640;DHT22;51745;50.872;4.732;2022-09-30T09:55:37;11.80;99.90
9640;DHT22;51745;50.872;4.732;2022-09-30T09:58:25;11.90;99.90
9640;DHT22;51745;50.872;4.732;2022-09-30T10:01:19;12.10;99.90
9640;DHT22;51745;50.872;4.732;2022-09-30T10:04:21;12.10;99.90
9640;DHT22;51745;50.872;4.732;2022-09-30T10:07:14;12.20;99.90
9640;DHT22;51745;50.872;4.732;2022-09-30T10:10:11;12.30;99.90
9640;DHT22;51745;50.872;4.732;2022-09-30T10:13:13;12.50;99.90
9640;DHT22;51745;50.872;4.732;2022-09-30T10:16:02;12.50;99.90
9640;DHT22;51745;50.872;4.732;2022-09-30T10:18:53;12.60;99.90
9640;DHT22;51745;50.872;4.732;2022-09-30T10:21:41;12.80;99.90
9640;DHT22;51745;50.872;4.732;2022-09-30T10:24:29;13.00;99.90
9640;DHT22;51745;50.872;4.732;2022-09-30T10:27:29;13.20;99.90
9640;DHT22;51745;50.872;4.732;2022-09-30T10:30:32;13.40;99.90
9640;DHT22;51745;50.872;4.732;2022-09-30T10:33:22;13.40;99.90
9640;DHT22;51745;50.872;4.732;2022-09-30T10:36:12;13.50;99.90
9640;DHT22;51745;50.872;4.732;2022-09-30T10:39:01;13.60;99.90
9640;DHT22;51745;50.872;4.732;2022-09-30T10:44:50;13.80;99.90
9640;DHT22;51745;50.872;4.732;2022-09-30T10:47:42;14.00;99.90
9640;DHT22;51745;50.872;4.732;2022-09-30T10:50:31;14.40;99.90
9640;DHT22;51745;50.872;4.732;2022-09-30T10:53:20;14.20;99.90
9640;DHT22;51745;50.872;4.732;2022-09-30T10:56:09;14.50;99.90
9640;DHT22;51745;50.872;4.732;2022-09-30T10:59:00;14.20;99.90
9640;DHT22;51745;50.872;4.732;2022-09-30T11:01:54;14.20;99.90
9640;DHT22;51745;50.872;4.732;2022-09-30T11:04:50;14.30;99.90
9640;DHT22;51745;50.872;4.732;2022-09-30T11:07:48;14.30;99.90
9640;DHT22;51745;50.872;4.732;2022-09-30T11:10:40;14.40;99.90
9640;DHT22;51745;50.872;4.732;2022-09-30T11:13:36;14.60;99.90
9640;DHT22;51745;50.872;4.732;2022-09-30T11:16:26;14.90;99.90
9640;DHT22;51745;50.872;4.732;2022-09-30T11:19:23;15.20;99.90
9640;DHT22;51745;50.872;4.732;2022-09-30T11:22:20;17.30;99.90
9640;DHT22;51745;50.872;4.732;2022-09-30T11:25:16;15.70;99.90
9640;DHT22;51745;50.872;4.732;2022-09-30T11:28:21;15.70;99.90
9640;DHT22;51745;50.872;4.732;2022-09-30T11:31:14;15.70;99.90
9640;DHT22;51745;50.872;4.732;2022-09-30T11:34:20;15.70;99.90
9640;DHT22;51745;50.872;4.732;2022-09-30T11:37:18;15.80;99.90
9640;DHT22;51745;50.872;4.732;2022-09-30T11:40:25;15.70;99.90
9640;DHT22;51745;50.872;4.732;2022-09-30T11:43:23;16.00;99.90
9640;DHT22;51745;50.872;4.732;2022-09-30T11:46:17;15.80;99.90
9640;DHT22;51745;50.872;4.732;2022-09-30T11:49:17;15.90;99.90
9640;DHT22;51745;50.872;4.732;2022-09-30T11:52:16;16.00;99.90
9640;DHT22;51745;50.872;4.732;2022-09-30T11:55:20;16.10;99.90
9640;DHT22;51745;50.872;4.732;2022-09-30T11:58:09;16.40;99.90
9640;DHT22;51745;50.872;4.732;2022-09-30T12:01:21;17.80;99.90
9640;DHT22;51745;50.872;4.732;2022-09-30T12:04:14;17.00;99.90
9640;DHT22;51745;50.872;4.732;2022-09-30T12:07:04;17.10;99.90
9640;DHT22;51745;50.872;4.732;2022-09-30T12:09:58;16.70;99.90
9640;DHT22;51745;50.872;4.732;2022-09-30T12:12:48;16.50;99.90
9640;DHT22;51745;50.872;4.732;2022-09-30T12:15:43;16.50;99.90
9640;DHT22;51745;50.872;4.732;2022-09-30T12:18:35;16.40;99.90
9640;DHT22;51745;50.872;4.732;2022-09-30T12:21:27;16.30;99.90
9640;DHT22;51745;50.872;4.732;2022-09-30T12:24:18;16.10;99.90
9640;DHT22;51745;50.872;4.732;2022-09-30T12:27:13;15.80;99.90
9640;DHT22;51745;50.872;4.732;2022-09-30T12:30:03;15.70;99.90
9640;DHT22;51745;50.872;4.732;2022-09-30T12:33:09;15.60;99.90
9640;DHT22;51745;50.872;4.732;2022-09-30T12:48:33;16.00;99.90
9640;DHT22;51745;50.872;4.732;2022-09-30T12:51:29;16.20;99.90
9640;DHT22;51745;50.872;4.732;2022-09-30T12:54:18;16.20;99.90
9640;DHT22;51745;50.872;4.732;2022-09-30T12:57:08;16.10;99.90
9640;DHT22;51745;50.872;4.732;2022-09-30T13:00:00;14.90;99.90
9640;DHT22;51745;50.872;4.732;2022-09-30T13:02:52;16.10;99.90
9640;DHT22;51745;50.872;4.732;2022-09-30T13:08:46;15.90;99.90
9640;DHT22;51745;50.872;4.732;2022-09-30T13:11:38;16.00;99.90
9640;DHT22;51745;50.872;4.732;2022-09-30T13:14:31;15.60;99.90
9640;DHT22;51745;50.872;4.732;2022-09-30T13:17:24;16.10;99.90
9640;DHT22;51745;50.872;4.732;2022-09-30T13:26:36;16.40;99.90
9640;DHT22;51745;50.872;4.732;2022-09-30T13:29:26;16.60;99.90
9640;DHT22;51745;50.872;4.732;2022-09-30T13:32:30;16.30;99.90
9640;DHT22;51745;50.872;4.732;2022-09-30T13:35:29;16.30;99.90
9640;DHT22;51745;50.872;4.732;2022-09-30T13:38:18;16.20;99.90
9640;DHT22;51745;50.872;4.732;2022-09-30T13:41:13;16.20;99.90
9640;DHT22;51745;50.872;4.732;2022-09-30T13:44:08;16.30;99.90
9640;DHT22;51745;50.872;4.732;2022-09-30T13:46:59;16.30;99.90
9640;DHT22;51745;50.872;4.732;2022-09-30T13:49:54;16.50;99.90
9640;DHT22;51745;50.872;4.732;2022-09-30T13:52:47;16.70;99.90
9640;DHT22;51745;50.872;4.732;2022-09-30T13:55:41;16.80;99.90
9640;DHT22;51745;50.872;4.732;2022-09-30T14:01:45;17.00;99.90
9640;DHT22;51745;50.872;4.732;2022-09-30T14:04:42;17.10;99.90
9640;DHT22;51745;50.872;4.732;2022-09-30T14:07:36;17.10;99.90
9640;DHT22;51745;50.872;4.732;2022-09-30T14:10:30;17.30;99.90
9640;DHT22;51745;50.872;4.732;2022-09-30T14:13:26;17.40;99.90
9640;DHT22;51745;50.872;4.732;2022-09-30T14:19:43;17.60;99.90
9640;DHT22;51745;50.872;4.732;2022-09-30T14:22:39;17.50;99.90
9640;DHT22;51745;50.872;4.732;2022-09-30T14:25:31;17.40;99.90
9640;DHT22;51745;50.872;4.732;2022-09-30T14:28:26;17.30;99.90
9640;DHT22;51745;50.872;4.732;2022-09-30T14:31:15;17.30;99.90
9640;DHT22;51745;50.872;4.732;2022-09-30T14:34:07;17.10;99.90
9640;DHT22;51745;50.872;4.732;2022-09-30T14:36:59;17.20;99.90
9640;DHT22;51745;50.872;4.732;2022-09-30T14:39:49;17.30;99.90
9640;DHT22;51745;50.872;4.732;2022-09-30T14:42:37;17.30;99.90
9640;DHT22;51745;50.872;4.732;2022-09-30T14:45:28;17.10;99.90
9640;DHT22;51745;50.872;4.732;2022-09-30T14:48:17;17.10;99.90
9640;DHT22;51745;50.872;4.732;2022-09-30T14:51:07;17.20;99.90
9640;DHT22;51745;50.872;4.732;2022-09-30T14:54:00;17.20;99.90
9640;DHT22;51745;50.872;4.732;2022-09-30T14:56:49;17.10;99.90
9640;DHT22;51745;50.872;4.732;2022-09-30T14:59:39;16.80;99.90
9640;DHT22;51745;50.872;4.732;2022-09-30T15:02:29;16.50;99.90
9640;DHT22;51745;50.872;4.732;2022-09-30T15:05:17;16.50;99.90
9640;DHT22;51745;50.872;4.732;2022-09-30T15:08:08;16.40;99.90
9640;DHT22;51745;50.872;4.732;2022-09-30T15:11:00;16.30;99.90
9640;DHT22;51745;50.872;4.732;2022-09-30T15:13:49;16.00;99.90
9640;DHT22;51745;50.872;4.732;2022-09-30T15:16:45;16.10;99.90
9640;DHT22;51745;50.872;4.732;2022-09-30T15:19:39;16.30;99.90
9640;DHT22;51745;50.872;4.732;2022-09-30T15:22:31;16.50;99.90
9640;DHT22;51745;50.872;4.732;2022-09-30T15:25:20;15.70;99.90
9640;DHT22;51745;50.872;4.732;2022-09-30T15:28:11;16.50;99.90
9640;DHT22;51745;50.872;4.732;2022-09-30T15:30:59;16.50;99.90
9640;DHT22;51745;50.872;4.732;2022-09-30T15:33:48;16.40;99.90
9640;DHT22;51745;50.872;4.732;2022-09-30T15:36:38;17.80;99.90
9640;DHT22;51745;50.872;4.732;2022-09-30T15:39:29;16.40;99.90
9640;DHT22;51745;50.872;4.732;2022-09-30T15:42:38;16.40;99.90
9640;DHT22;51745;50.872;4.732;2022-09-30T15:45:29;16.40;99.90
9640;DHT22;51745;50.872;4.732;2022-09-30T15:48:31;16.40;99.90
9640;DHT22;51745;50.872;4.732;2022-09-30T15:51:23;16.10;99.90
9640;DHT22;51745;50.872;4.732;2022-09-30T15:54:34;16.00;99.90
9640;DHT22;51745;50.872;4.732;2022-09-30T15:57:38;15.90;99.90
9640;DHT22;51745;50.872;4.732;2022-09-30T16:00:32;15.80;99.90
9640;DHT22;51745;50.872;4.732;2022-09-30T16:03:25;15.70;99.90
9640;DHT22;51745;50.872;4.732;2022-09-30T16:06:14;16.00;99.90
9640;DHT22;51745;50.872;4.732;2022-09-30T16:09:05;15.60;99.90
9640;DHT22;51745;50.872;4.732;2022-09-30T16:11:58;15.50;99.90
9640;DHT22;51745;50.872;4.732;2022-09-30T16:14:46;15.40;99.90
9640;DHT22;51745;50.872;4.732;2022-09-30T16:17:37;15.10;99.90
9640;DHT22;51745;50.872;4.732;2022-09-30T16:20:25;15.00;99.90
9640;DHT22;51745;50.872;4.732;2022-09-30T16:23:23;14.90;99.90
9640;DHT22;51745;50.872;4.732;2022-09-30T16:26:17;14.60;99.90
9640;DHT22;51745;50.872;4.732;2022-09-30T16:29:06;14.50;99.90
9640;DHT22;51745;50.872;4.732;2022-09-30T16:31:59;14.40;99.90
9640;DHT22;51745;50.872;4.732;2022-09-30T16:34:48;14.20;99.90
9640;DHT22;51745;50.872;4.732;2022-09-30T16:37:41;14.10;99.90
9640;DHT22;51745;50.872;4.732;2022-09-30T16:40:29;14.50;99.90
9640;DHT22;51745;50.872;4.732;2022-09-30T16:43:17;13.80;99.90
9640;DHT22;51745;50.872;4.732;2022-09-30T16:46:05;13.70;99.90
9640;DHT22;51745;50.872;4.732;2022-09-30T16:48:54;13.60;99.90
9640;DHT22;51745;50.872;4.732;2022-09-30T16:51:47;13.50;99.90
9640;DHT22;51745;50.872;4.732;2022-09-30T16:54:36;13.40;99.90
9640;DHT22;51745;50.872;4.732;2022-09-30T16:57:24;13.30;99.90
9640;DHT22;51745;50.872;4.732;2022-09-30T17:00:16;13.20;99.90
9640;DHT22;51745;50.872;4.732;2022-09-30T17:03:08;13.00;99.90
9640;DHT22;51745;50.872;4.732;2022-09-30T17:05:58;12.90;99.90
9640;DHT22;51745;50.872;4.732;2022-09-30T17:08:48;12.70;99.90
9640;DHT22;51745;50.872;4.732;2022-09-30T17:11:41;12.60;99.90
9640;DHT22;51745;50.872;4.732;2022-09-30T17:14:31;12.60;99.90
9640;DHT22;51745;50.872;4.732;2022-09-30T17:17:20;12.60;99.90
9640;DHT22;51745;50.872;4.732;2022-09-30T17:20:08;12.50;99.90
9640;DHT22;51745;50.872;4.732;2022-09-30T17:22:57;12.40;99.90
9640;DHT22;51745;50.872;4.732;2022-09-30T17:25:54;12.30;99.90
9640;DHT22;51745;50.872;4.732;2022-09-30T17:28:44;12.30;99.90
9640;DHT22;51745;50.872;4.732;2022-09-30T17:31:33;12.30;99.90
9640;DHT22;51745;50.872;4.732;2022-09-30T17:34:21;12.10;99.90
9640;DHT22;51745;50.872;4.732;2022-09-30T17:37:09;12.10;99.90
9640;DHT22;51745;50.872;4.732;2022-09-30T17:40:04;11.90;99.90
9640;DHT22;51745;50.872;4.732;2022-09-30T17:43:15;11.90;99.90
9640;DHT22;51745;50.872;4.732;2022-09-30T17:46:01;11.60;99.90
9640;DHT22;51745;50.872;4.732;2022-09-30T17:48:55;11.00;99.90
9640;DHT22;51745;50.872;4.732;2022-09-30T17:51:44;11.90;99.90
9640;DHT22;51745;50.872;4.732;2022-09-30T17:54:32;11.60;99.90
9640;DHT22;51745;50.872;4.732;2022-09-30T17:57:22;11.50;99.90
9640;DHT22;51745;50.872;4.732;2022-09-30T18:00:13;11.40;99.90
9640;DHT22;51745;50.872;4.732;2022-09-30T18:03:03;11.40;99.90
9640;DHT22;51745;50.872;4.732;2022-09-30T18:05:55;10.80;99.90
9640;DHT22;51745;50.872;4.732;2022-09-30T18:08:46;11.30;99.90
9640;DHT22;51745;50.872;4.732;2022-09-30T18:11:38;11.20;99.90
9640;DHT22;51745;50.872;4.732;2022-09-30T18:14:29;11.10;99.90
9640;DHT22;51745;50.872;4.732;2022-09-30T18:17:23;11.10;99.90
9640;DHT22;51745;50.872;4.732;2022-09-30T18:20:15;11.10;99.90
9640;DHT22;51745;50.872;4.732;2022-09-30T18:23:10;11.00;99.90
9640;DHT22;51745;50.872;4.732;2022-09-30T18:25:59;11.30;99.90
9640;DHT22;51745;50.872;4.732;2022-09-30T18:28:47;10.90;99.90
9640;DHT22;51745;50.872;4.732;2022-09-30T18:31:38;11.00;99.90
9640;DHT22;51745;50.872;4.732;2022-09-30T18:34:29;10.90;99.90
9640;DHT22;51745;50.872;4.732;2022-09-30T18:37:17;10.90;99.90
9640;DHT22;51745;50.872;4.732;2022-09-30T18:40:06;10.90;99.90
9640;DHT22;51745;50.872;4.732;2022-09-30T18:42:54;10.90;99.90
9640;DHT22;51745;50.872;4.732;2022-09-30T18:45:50;10.90;99.90
9640;DHT22;51745;50.872;4.732;2022-09-30T18:48:38;10.90;99.90
9640;DHT22;51745;50.872;4.732;2022-09-30T18:51:28;11.00;99.90
9640;DHT22;51745;50.872;4.732;2022-09-30T18:54:16;11.00;99.90
9640;DHT22;51745;50.872;4.732;2022-09-30T18:57:04;11.00;99.90
9640;DHT22;51745;50.872;4.732;2022-09-30T18:59:52;11.00;99.90
9640;DHT22;51745;50.872;4.732;2022-09-30T19:02:40;11.00;99.90
9640;DHT22;51745;50.872;4.732;2022-09-30T19:05:31;12.10;99.90
9640;DHT22;51745;50.872;4.732;2022-09-30T19:08:20;11.10;99.90
9640;DHT22;51745;50.872;4.732;2022-09-30T19:11:08;12.20;99.90
9640;DHT22;51745;50.872;4.732;2022-09-30T19:14:00;11.60;99.90
9640;DHT22;51745;50.872;4.732;2022-09-30T19:16:48;11.20;99.90